EST,Max TemperatureF,Mean TemperatureF,Min TemperatureF,Max Dew PointF,MeanDew PointF,Min DewpointF,Max Humidity, Mean Humidity, Min Humidity, Max Sea Level PressureIn, Mean Sea Level PressureIn, Min Sea Level PressureIn, Max VisibilityMiles, Mean VisibilityMiles, Min VisibilityMiles, Max Wind SpeedMPH, Mean Wind SpeedMPH, Max Gust SpeedMPH,PrecipitationIn, CloudCover, Events, WindDirDegrees
2011-12-1,33,30,26,30,25,16,93,80,64,30.24,30.15,30.06,10,7,0,18,5,23,0.04,7,,316
2011-12-2,30,24,19,18,13,9,74,60,47,30.38,30.33,30.23,10,10,10,15,10,21,0.00,4,,174
2011-12-3,39,34,28,37,30,19,93,84,69,30.33,30.13,29.94,10,5,0,14,9,21,0.13,8,,160
2011-12-4,42,36,30,39,33,25,93,86,75,30.19,29.91,29.76,10,7,1,15,10,20,0.06,8,,291
2011-12-5,30,26,23,23,20,16,80,77,69,30.35,30.28,30.19,10,10,5,16,7,22,0.00,8,,359
2011-12-6,24,20,15,18,14,10,86,77,68,30.32,30.23,30.06,10,10,7,10,7,,0.00,8,,345
2011-12-7,28,22,17,19,16,10,86,71,51,30.01,29.85,29.77,10,10,5,14,4,21,0.00,6,,249
2011-12-8,24,20,17,19,11,0,80,63,39,30.03,29.89,29.80,10,10,5,18,10,25,0.00,3,,250
2011-12-9,21,16,12,3,1,0,62,50,39,30.18,30.08,30.00,10,10,10,16,11,25,0.00,0,,251
2011-12-10,24,18,12,16,5,-2,69,56,39,30.27,30.22,30.18,10,10,10,16,8,22,0.00,7,,231
2011-12-11,41,34,26,34,26,16,81,70,61,30.21,30.13,30.08,10,10,9,18,8,29,0.00,5,,217
2011-12-12,39,36,33,36,31,27,93,82,70,30.31,30.25,30.16,10,6,1,14,8,24,0.09,7,,231
2011-12-13,37,35,33,34,31,28,93,87,81,30.37,30.33,30.28,10,4,0,7,3,,0.01,8,,119
2011-12-14,37,35,33,34,33,30,93,88,81,30.29,30.03,29.69,10,2,0,14,8,16,0.02,8,,122
2011-12-15,39,34,28,37,33,25,93,88,75,29.71,29.51,29.42,10,6,0,21,9,31,0.13,8,,250
2011-12-16,33,24,15,28,16,5,87,74,58,30.30,30.17,29.79,10,9,2,22,13,29,0.00,8,,325
2011-12-17,24,14,3,21,7,-4,86,69,54,30.30,30.19,29.97,10,10,5,10,6,16,0.00,3,,125
2011-12-18,37,29,21,28,22,18,86,76,69,30.05,29.91,29.61,10,10,8,14,8,21,0.00,8,,209
2011-12-19,39,30,21,34,24,12,87,72,63,30.19,29.82,29.56,10,10,9,24,13,31,0.00,7,,305
2011-12-20,28,22,17,21,16,12,80,69,59,30.21,30.05,29.81,10,10,10,13,7,21,0.00,8,,168
2011-12-21,37,30,24,28,23,19,93,74,60,29.77,29.68,29.60,10,10,9,9,6,,0.00,4,,205
2011-12-22,32,24,14,27,18,5,86,70,59,30.20,30.04,29.81,10,10,3,24,10,31,0.00,8,,312
2011-12-23,19,14,10,12,6,1,79,69,58,30.28,30.23,30.19,10,8,2,16,8,20,0.00,8,,83
2011-12-24,32,26,19,27,22,16,93,84,75,30.24,30.14,29.91,10,9,3,15,11,21,0.00,8,,134
2011-12-25,33,28,23,28,24,18,87,79,64,30.11,29.88,29.75,10,9,1,23,7,32,0.00,7,,270
2011-12-26,39,34,28,30,25,21,75,67,56,30.12,29.91,29.63,10,10,10,18,9,32,0.00,5,,217
2011-12-27,39,24,8,30,21,-2,81,71,58,29.82,29.60,29.48,10,10,2,26,12,33,0.00,6,,280
2011-12-28,12,5,-2,1,-6,-15,73,58,44,30.03,29.95,29.82,10,10,10,17,9,22,0.00,1,,17
2011-12-29,23,16,10,18,13,0,86,80,62,29.91,29.72,29.63,10,7,2,21,12,26,0.00,8,,91
2011-12-30,24,22,21,23,20,16,93,86,80,29.78,29.74,29.69,10,5,0,16,10,23,0.00,8,,81
2011-12-31,33,25,17,28,23,14,93,84,65,29.94,29.87,29.76,10,8,0,12,4,,0.00,4,,212